sensor_id;sensor_type;location;lat;lon;timestamp;temperature;humidity
63960;DHT22;50136;51.374;0.096;2023-08-08T00:03:20;14.60;99.90
63960;DHT22;50136;51.374;0.096;2023-08-08T00:13:23;14.40;99.90
63960;DHT22;50136;51.374;0.096;2023-08-08T00:23:25;14.30;99.90
63960;DHT22;50136;51.374;0.096;2023-08-08T00:33:29;14.20;99.90
63960;DHT22;50136;51.374;0.096;2023-08-08T00:43:31;14.20;99.90
63960;DHT22;50136;51.374;0.096;2023-08-08T00:53:34;14.10;99.90
63960;DHT22;50136;51.374;0.096;2023-08-08T01:03:36;14.10;99.90
63960;DHT22;50136;51.374;0.096;2023-08-08T01:13:40;14.20;99.90
63960;DHT22;50136;51.374;0.096;2023-08-08T01:23:46;14.20;99.90
63960;DHT22;50136;51.374;0.096;2023-08-08T01:33:53;14.10;99.90
63960;DHT22;50136;51.374;0.096;2023-08-08T01:43:55;13.90;99.90
63960;DHT22;50136;51.374;0.096;2023-08-08T01:53:59;13.90;99.90
63960;DHT22;50136;51.374;0.096;2023-08-08T02:04:01;13.70;99.90
63960;DHT22;50136;51.374;0.096;2023-08-08T02:14:04;13.60;99.90
63960;DHT22;50136;51.374;0.096;2023-08-08T02:24:06;13.50;99.90
63960;DHT22;50136;51.374;0.096;2023-08-08T02:34:09;13.40;99.90
63960;DHT22;50136;51.374;0.096;2023-08-08T02:44:11;13.20;99.90
63960;DHT22;50136;51.374;0.096;2023-08-08T02:54:15;13.20;99.90
63960;DHT22;50136;51.374;0.096;2023-08-08T03:04:17;13.20;99.90
63960;DHT22;50136;51.374;0.096;2023-08-08T03:14:20;13.10;99.90
63960;DHT22;50136;51.374;0.096;2023-08-08T03:24:22;13.00;99.90
63960;DHT22;50136;51.374;0.096;2023-08-08T03:34:26;13.00;99.90
63960;DHT22;50136;51.374;0.096;2023-08-08T03:44:28;13.00;99.90
63960;DHT22;50136;51.374;0.096;2023-08-08T03:54:31;12.90;99.90
63960;DHT22;50136;51.374;0.096;2023-08-08T04:04:33;13.00;99.90
63960;DHT22;50136;51.374;0.096;2023-08-08T04:14:36;13.10;99.90
63960;DHT22;50136;51.374;0.096;2023-08-08T04:24:38;13.30;99.90
63960;DHT22;50136;51.374;0.096;2023-08-08T04:34:42;13.40;99.90
63960;DHT22;50136;51.374;0.096;2023-08-08T04:44:44;13.50;99.90
63960;DHT22;50136;51.374;0.096;2023-08-08T04:54:47;13.50;99.90
63960;DHT22;50136;51.374;0.096;2023-08-08T05:04:49;13.60;99.90
63960;DHT22;50136;51.374;0.096;2023-08-08T05:14:52;13.80;99.90
63960;DHT22;50136;51.374;0.096;2023-08-08T05:24:54;13.80;99.90
63960;DHT22;50136;51.374;0.096;2023-08-08T05:34:58;13.70;99.90
63960;DHT22;50136;51.374;0.096;2023-08-08T05:45:00;13.80;99.90
63960;DHT22;50136;51.374;0.096;2023-08-08T05:55:04;13.90;99.90
63960;DHT22;50136;51.374;0.096;2023-08-08T06:05:07;14.10;99.90
63960;DHT22;50136;51.374;0.096;2023-08-08T06:15:11;14.60;99.90
63960;DHT22;50136;51.374;0.096;2023-08-08T06:25:13;14.80;99.90
63960;DHT22;50136;51.374;0.096;2023-08-08T06:35:16;14.90;99.90
63960;DHT22;50136;51.374;0.096;2023-08-08T06:45:18;15.00;99.90
63960;DHT22;50136;51.374;0.096;2023-08-08T06:55:22;15.40;99.90
63960;DHT22;50136;51.374;0.096;2023-08-08T07:05:24;15.70;99.90
63960;DHT22;50136;51.374;0.096;2023-08-08T07:15:27;16.10;99.90
63960;DHT22;50136;51.374;0.096;2023-08-08T07:25:29;16.20;99.90
63960;DHT22;50136;51.374;0.096;2023-08-08T07:35:34;16.40;99.90
63960;DHT22;50136;51.374;0.096;2023-08-08T07:45:36;16.30;99.90
63960;DHT22;50136;51.374;0.096;2023-08-08T07:55:39;16.20;99.90
63960;DHT22;50136;51.374;0.096;2023-08-08T08:05:41;16.10;99.90
63960;DHT22;50136;51.374;0.096;2023-08-08T08:15:45;15.80;99.90
63960;DHT22;50136;51.374;0.096;2023-08-08T08:25:47;15.70;99.90
63960;DHT22;50136;51.374;0.096;2023-08-08T08:35:50;15.90;99.90
63960;DHT22;50136;51.374;0.096;2023-08-08T08:45:53;16.00;99.90
63960;DHT22;50136;51.374;0.096;2023-08-08T08:55:57;15.90;99.90
63960;DHT22;50136;51.374;0.096;2023-08-08T09:05:59;16.10;99.90
63960;DHT22;50136;51.374;0.096;2023-08-08T09:16:04;16.10;99.90
63960;DHT22;50136;51.374;0.096;2023-08-08T09:26:06;16.10;99.90
63960;DHT22;50136;51.374;0.096;2023-08-08T09:36:13;16.10;99.90
63960;DHT22;50136;51.374;0.096;2023-08-08T09:46:16;16.10;99.90
63960;DHT22;50136;51.374;0.096;2023-08-08T09:56:20;16.30;99.90
63960;DHT22;50136;51.374;0.096;2023-08-08T10:06:22;16.60;99.90
63960;DHT22;50136;51.374;0.096;2023-08-08T10:16:26;16.70;99.90
63960;DHT22;50136;51.374;0.096;2023-08-08T10:26:28;16.70;99.90
63960;DHT22;50136;51.374;0.096;2023-08-08T10:36:48;16.90;99.90
63960;DHT22;50136;51.374;0.096;2023-08-08T10:46:52;17.10;99.90
63960;DHT22;50136;51.374;0.096;2023-08-08T10:56:56;17.10;99.90
63960;DHT22;50136;51.374;0.096;2023-08-08T11:07:00;17.60;99.90
63960;DHT22;50136;51.374;0.096;2023-08-08T11:17:04;18.70;99.90
63960;DHT22;50136;51.374;0.096;2023-08-08T11:27:07;18.90;99.90
63960;DHT22;50136;51.374;0.096;2023-08-08T11:37:11;18.60;99.90
63960;DHT22;50136;51.374;0.096;2023-08-08T11:47:13;18.20;99.90
63960;DHT22;50136;51.374;0.096;2023-08-08T11:57:17;18.00;99.90
63960;DHT22;50136;51.374;0.096;2023-08-08T12:07:19;17.80;99.90
63960;DHT22;50136;51.374;0.096;2023-08-08T12:17:22;17.70;99.90
63960;DHT22;50136;51.374;0.096;2023-08-08T12:27:25;17.50;99.90
63960;DHT22;50136;51.374;0.096;2023-08-08T12:37:28;17.60;99.90
63960;DHT22;50136;51.374;0.096;2023-08-08T12:47:30;18.10;99.90
63960;DHT22;50136;51.374;0.096;2023-08-08T12:57:34;18.60;99.90
63960;DHT22;50136;51.374;0.096;2023-08-08T13:07:36;18.30;99.90
63960;DHT22;50136;51.374;0.096;2023-08-08T13:17:39;18.20;99.90
63960;DHT22;50136;51.374;0.096;2023-08-08T13:27:41;18.00;99.90
63960;DHT22;50136;51.374;0.096;2023-08-08T13:37:45;18.00;99.90
63960;DHT22;50136;51.374;0.096;2023-08-08T13:47:48;17.90;99.90
63960;DHT22;50136;51.374;0.096;2023-08-08T13:57:54;17.70;99.90
63960;DHT22;50136;51.374;0.096;2023-08-08T14:07:56;17.70;99.90
63960;DHT22;50136;51.374;0.096;2023-08-08T14:18:00;17.80;99.90
63960;DHT22;50136;51.374;0.096;2023-08-08T14:28:02;17.50;99.90
63960;DHT22;50136;51.374;0.096;2023-08-08T14:38:06;17.50;99.90
63960;DHT22;50136;51.374;0.096;2023-08-08T14:48:08;18.20;99.90
63960;DHT22;50136;51.374;0.096;2023-08-08T14:58:11;18.50;99.90
63960;DHT22;50136;51.374;0.096;2023-08-08T15:08:13;18.50;99.90
63960;DHT22;50136;51.374;0.096;2023-08-08T15:18:17;18.30;99.90
63960;DHT22;50136;51.374;0.096;2023-08-08T15:28:19;18.10;99.90
63960;DHT22;50136;51.374;0.096;2023-08-08T15:38:22;18.00;99.90
63960;DHT22;50136;51.374;0.096;2023-08-08T15:48:24;17.90;99.90
63960;DHT22;50136;51.374;0.096;2023-08-08T15:58:28;17.70;99.90
63960;DHT22;50136;51.374;0.096;2023-08-08T16:08:30;17.70;99.90
63960;DHT22;50136;51.374;0.096;2023-08-08T16:18:33;17.70;99.90
63960;DHT22;50136;51.374;0.096;2023-08-08T16:28:35;17.80;99.90
63960;DHT22;50136;51.374;0.096;2023-08-08T16:38:39;17.60;99.90
63960;DHT22;50136;51.374;0.096;2023-08-08T16:48:43;17.60;99.90
63960;DHT22;50136;51.374;0.096;2023-08-08T16:58:47;17.50;99.90
63960;DHT22;50136;51.374;0.096;2023-08-08T17:08:49;17.50;99.90
63960;DHT22;50136;51.374;0.096;2023-08-08T17:30:03;17.50;99.90
63960;DHT22;50136;51.374;0.096;2023-08-08T17:40:06;17.50;99.90
63960;DHT22;50136;51.374;0.096;2023-08-08T17:50:09;17.40;99.90
63960;DHT22;50136;51.374;0.096;2023-08-08T18:22:04;17.50;99.90
63960;DHT22;50136;51.374;0.096;2023-08-08T18:32:07;17.50;99.90
63960;DHT22;50136;51.374;0.096;2023-08-08T18:42:11;17.50;99.90
63960;DHT22;50136;51.374;0.096;2023-08-08T18:52:13;17.40;99.90
63960;DHT22;50136;51.374;0.096;2023-08-08T19:02:26;17.40;99.90
63960;DHT22;50136;51.374;0.096;2023-08-08T19:12:28;17.30;99.90
63960;DHT22;50136;51.374;0.096;2023-08-08T19:22:33;17.30;99.90
63960;DHT22;50136;51.374;0.096;2023-08-08T19:32:35;17.20;99.90
63960;DHT22;50136;51.374;0.096;2023-08-08T19:42:39;17.30;99.90
63960;DHT22;50136;51.374;0.096;2023-08-08T19:52:41;17.20;99.90
63960;DHT22;50136;51.374;0.096;2023-08-08T20:02:44;17.20;99.90
63960;DHT22;50136;51.374;0.096;2023-08-08T20:12:48;17.10;99.90
63960;DHT22;50136;51.374;0.096;2023-08-08T20:22:51;17.10;99.90
63960;DHT22;50136;51.374;0.096;2023-08-08T20:32:53;17.10;99.90
63960;DHT22;50136;51.374;0.096;2023-08-08T20:42:57;17.00;99.90
63960;DHT22;50136;51.374;0.096;2023-08-08T20:52:59;17.10;99.90
63960;DHT22;50136;51.374;0.096;2023-08-08T21:03:44;17.10;99.90
63960;DHT22;50136;51.374;0.096;2023-08-08T21:13:46;17.10;99.90
63960;DHT22;50136;51.374;0.096;2023-08-08T21:23:49;17.10;99.90
63960;DHT22;50136;51.374;0.096;2023-08-08T21:33:51;17.00;99.90
63960;DHT22;50136;51.374;0.096;2023-08-08T21:43:55;17.10;99.90
63960;DHT22;50136;51.374;0.096;2023-08-08T21:53:57;17.10;99.90
63960;DHT22;50136;51.374;0.096;2023-08-08T22:04:00;17.10;99.90
63960;DHT22;50136;51.374;0.096;2023-08-08T22:14:03;17.00;99.90
63960;DHT22;50136;51.374;0.096;2023-08-08T22:24:06;16.90;99.90
63960;DHT22;50136;51.374;0.096;2023-08-08T22:34:08;16.80;99.90
63960;DHT22;50136;51.374;0.096;2023-08-08T22:44:12;16.70;99.90
63960;DHT22;50136;51.374;0.096;2023-08-08T22:54:14;16.60;99.90
63960;DHT22;50136;51.374;0.096;2023-08-08T23:04:17;16.40;99.90
63960;DHT22;50136;51.374;0.096;2023-08-08T23:14:19;16.20;99.90
63960;DHT22;50136;51.374;0.096;2023-08-08T23:24:22;16.00;99.90
63960;DHT22;50136;51.374;0.096;2023-08-08T23:34:24;15.80;99.90
63960;DHT22;50136;51.374;0.096;2023-08-08T23:44:28;15.60;99.90
63960;DHT22;50136;51.374;0.096;2023-08-08T23:54:30;15.50;99.90
